sensor_id;sensor_type;location;lat;lon;timestamp;temperature;humidity
1075;DHT22;526;51.392;12.448;2022-10-26T00:01:31;8.30;97.30
1075;DHT22;526;51.392;12.448;2022-10-26T00:03:57;8.30;97.30
1075;DHT22;526;51.392;12.448;2022-10-26T00:06:24;8.30;97.30
1075;DHT22;526;51.392;12.448;2022-10-26T00:08:54;8.30;97.30
1075;DHT22;526;51.392;12.448;2022-10-26T00:11:20;8.30;97.30
1075;DHT22;526;51.392;12.448;2022-10-26T00:13:49;8.30;97.30
1075;DHT22;526;51.392;12.448;2022-10-26T00:16:24;8.30;97.30
1075;DHT22;526;51.392;12.448;2022-10-26T00:18:54;8.30;97.30
1075;DHT22;526;51.392;12.448;2022-10-26T00:21:21;8.30;97.30
1075;DHT22;526;51.392;12.448;2022-10-26T00:23:47;8.20;97.30
1075;DHT22;526;51.392;12.448;2022-10-26T00:26:15;8.20;97.30
1075;DHT22;526;51.392;12.448;2022-10-26T00:28:43;8.20;97.30
1075;DHT22;526;51.392;12.448;2022-10-26T00:31:12;8.20;97.30
1075;DHT22;526;51.392;12.448;2022-10-26T00:33:46;8.20;97.30
1075;DHT22;526;51.392;12.448;2022-10-26T00:36:23;8.10;97.30
1075;DHT22;526;51.392;12.448;2022-10-26T00:38:53;8.10;97.30
1075;DHT22;526;51.392;12.448;2022-10-26T00:41:29;8.10;97.30
1075;DHT22;526;51.392;12.448;2022-10-26T00:43:55;8.10;97.30
1075;DHT22;526;51.392;12.448;2022-10-26T00:46:29;8.00;97.30
1075;DHT22;526;51.392;12.448;2022-10-26T00:49:03;8.00;97.30
1075;DHT22;526;51.392;12.448;2022-10-26T00:51:37;8.00;97.30
1075;DHT22;526;51.392;12.448;2022-10-26T00:54:10;8.00;97.30
1075;DHT22;526;51.392;12.448;2022-10-26T00:56:37;8.00;97.30
1075;DHT22;526;51.392;12.448;2022-10-26T00:59:06;7.90;97.30
1075;DHT22;526;51.392;12.448;2022-10-26T01:01:34;7.90;97.30
1075;DHT22;526;51.392;12.448;2022-10-26T01:04:00;7.90;97.30
1075;DHT22;526;51.392;12.448;2022-10-26T01:06:28;7.90;97.30
1075;DHT22;526;51.392;12.448;2022-10-26T01:08:54;7.90;97.30
1075;DHT22;526;51.392;12.448;2022-10-26T01:11:20;7.90;97.30
1075;DHT22;526;51.392;12.448;2022-10-26T01:13:47;7.90;97.30
1075;DHT22;526;51.392;12.448;2022-10-26T01:24:22;7.70;97.30
1075;DHT22;526;51.392;12.448;2022-10-26T01:27:11;7.70;97.30
1075;DHT22;526;51.392;12.448;2022-10-26T01:30:18;7.70;97.30
1075;DHT22;526;51.392;12.448;2022-10-26T01:33:05;7.70;97.30
1075;DHT22;526;51.392;12.448;2022-10-26T01:38:54;7.70;97.30
1075;DHT22;526;51.392;12.448;2022-10-26T01:41:52;7.70;97.30
1075;DHT22;526;51.392;12.448;2022-10-26T01:44:25;7.60;97.30
1075;DHT22;526;51.392;12.448;2022-10-26T01:46:54;7.60;97.30
1075;DHT22;526;51.392;12.448;2022-10-26T01:49:25;7.60;97.30
1075;DHT22;526;51.392;12.448;2022-10-26T01:51:52;7.60;97.30
1075;DHT22;526;51.392;12.448;2022-10-26T01:54:17;7.60;97.30
1075;DHT22;526;51.392;12.448;2022-10-26T01:56:55;7.60;97.30
1075;DHT22;526;51.392;12.448;2022-10-26T02:07:57;7.50;97.30
1075;DHT22;526;51.392;12.448;2022-10-26T02:10:29;7.50;97.30
1075;DHT22;526;51.392;12.448;2022-10-26T02:13:14;7.50;97.30
1075;DHT22;526;51.392;12.448;2022-10-26T02:18:46;7.50;97.30
1075;DHT22;526;51.392;12.448;2022-10-26T02:21:21;7.50;97.30
1075;DHT22;526;51.392;12.448;2022-10-26T02:23:50;7.50;97.30
1075;DHT22;526;51.392;12.448;2022-10-26T02:26:19;7.50;97.30
1075;DHT22;526;51.392;12.448;2022-10-26T02:28:49;7.50;97.30
1075;DHT22;526;51.392;12.448;2022-10-26T02:31:15;7.50;97.30
1075;DHT22;526;51.392;12.448;2022-10-26T02:33:48;7.50;97.30
1075;DHT22;526;51.392;12.448;2022-10-26T02:36:19;7.40;97.30
1075;DHT22;526;51.392;12.448;2022-10-26T02:38:46;7.40;97.30
1075;DHT22;526;51.392;12.448;2022-10-26T02:41:14;7.50;97.30
1075;DHT22;526;51.392;12.448;2022-10-26T02:43:49;7.50;97.30
1075;DHT22;526;51.392;12.448;2022-10-26T02:46:20;7.50;97.30
1075;DHT22;526;51.392;12.448;2022-10-26T02:48:47;7.50;97.30
1075;DHT22;526;51.392;12.448;2022-10-26T02:51:19;7.60;97.30
1075;DHT22;526;51.392;12.448;2022-10-26T02:54:04;7.60;97.30
1075;DHT22;526;51.392;12.448;2022-10-26T02:56:42;7.60;97.30
1075;DHT22;526;51.392;12.448;2022-10-26T02:59:10;7.70;97.30
1075;DHT22;526;51.392;12.448;2022-10-26T03:01:37;7.70;97.30
1075;DHT22;526;51.392;12.448;2022-10-26T03:04:03;7.70;97.30
1075;DHT22;526;51.392;12.448;2022-10-26T03:06:28;7.70;97.30
1075;DHT22;526;51.392;12.448;2022-10-26T03:08:54;7.70;97.30
1075;DHT22;526;51.392;12.448;2022-10-26T03:11:19;7.70;97.30
1075;DHT22;526;51.392;12.448;2022-10-26T03:13:45;7.70;97.30
1075;DHT22;526;51.392;12.448;2022-10-26T03:16:10;7.80;97.30
1075;DHT22;526;51.392;12.448;2022-10-26T03:18:36;7.80;97.30
1075;DHT22;526;51.392;12.448;2022-10-26T03:21:02;7.80;97.30
1075;DHT22;526;51.392;12.448;2022-10-26T03:23:27;7.80;97.30
1075;DHT22;526;51.392;12.448;2022-10-26T03:25:57;7.80;97.30
1075;DHT22;526;51.392;12.448;2022-10-26T03:28:22;7.90;97.30
1075;DHT22;526;51.392;12.448;2022-10-26T03:30:48;7.90;97.30
1075;DHT22;526;51.392;12.448;2022-10-26T03:33:14;7.90;97.30
1075;DHT22;526;51.392;12.448;2022-10-26T03:35:39;8.00;97.30
1075;DHT22;526;51.392;12.448;2022-10-26T03:38:05;8.00;97.30
1075;DHT22;526;51.392;12.448;2022-10-26T03:40:30;8.00;97.30
1075;DHT22;526;51.392;12.448;2022-10-26T03:42:56;8.00;97.30
1075;DHT22;526;51.392;12.448;2022-10-26T03:45:22;8.00;97.30
1075;DHT22;526;51.392;12.448;2022-10-26T03:47:48;8.00;97.30
1075;DHT22;526;51.392;12.448;2022-10-26T03:50:16;8.00;97.30
1075;DHT22;526;51.392;12.448;2022-10-26T03:52:43;7.90;97.30
1075;DHT22;526;51.392;12.448;2022-10-26T03:55:09;7.90;97.30
1075;DHT22;526;51.392;12.448;2022-10-26T03:57:42;7.90;97.30
1075;DHT22;526;51.392;12.448;2022-10-26T04:00:09;7.90;97.30
1075;DHT22;526;51.392;12.448;2022-10-26T04:02:35;7.90;97.30
1075;DHT22;526;51.392;12.448;2022-10-26T04:05:01;7.90;97.30
1075;DHT22;526;51.392;12.448;2022-10-26T04:07:26;7.80;97.30
1075;DHT22;526;51.392;12.448;2022-10-26T04:09:52;7.80;97.30
1075;DHT22;526;51.392;12.448;2022-10-26T04:12:17;7.80;97.30
1075;DHT22;526;51.392;12.448;2022-10-26T04:14:43;7.70;97.30
1075;DHT22;526;51.392;12.448;2022-10-26T04:17:08;7.70;97.30
1075;DHT22;526;51.392;12.448;2022-10-26T04:19:34;7.70;97.30
1075;DHT22;526;51.392;12.448;2022-10-26T04:22:00;7.70;97.30
1075;DHT22;526;51.392;12.448;2022-10-26T04:24:25;7.70;97.30
1075;DHT22;526;51.392;12.448;2022-10-26T04:26:51;7.60;97.30
1075;DHT22;526;51.392;12.448;2022-10-26T04:29:16;7.60;97.30
1075;DHT22;526;51.392;12.448;2022-10-26T04:31:42;7.50;97.30
1075;DHT22;526;51.392;12.448;2022-10-26T04:34:07;7.50;97.30
1075;DHT22;526;51.392;12.448;2022-10-26T04:36:33;7.50;97.30
1075;DHT22;526;51.392;12.448;2022-10-26T04:38:59;7.50;97.30
1075;DHT22;526;51.392;12.448;2022-10-26T04:41:25;7.40;97.30
1075;DHT22;526;51.392;12.448;2022-10-26T04:43:51;7.40;97.30
1075;DHT22;526;51.392;12.448;2022-10-26T04:46:20;7.50;97.30
1075;DHT22;526;51.392;12.448;2022-10-26T04:48:47;7.50;97.30
1075;DHT22;526;51.392;12.448;2022-10-26T04:51:13;7.50;97.30
1075;DHT22;526;51.392;12.448;2022-10-26T04:53:38;7.50;97.30
1075;DHT22;526;51.392;12.448;2022-10-26T04:56:04;7.50;97.30
1075;DHT22;526;51.392;12.448;2022-10-26T04:58:30;7.50;97.30
1075;DHT22;526;51.392;12.448;2022-10-26T05:01:00;7.50;97.30
1075;DHT22;526;51.392;12.448;2022-10-26T05:03:26;7.60;97.30
1075;DHT22;526;51.392;12.448;2022-10-26T05:05:52;7.60;97.30
1075;DHT22;526;51.392;12.448;2022-10-26T05:08:18;7.60;97.30
1075;DHT22;526;51.392;12.448;2022-10-26T05:10:49;7.60;97.30
1075;DHT22;526;51.392;12.448;2022-10-26T05:13:28;7.60;97.30
1075;DHT22;526;51.392;12.448;2022-10-26T05:16:02;7.60;97.30
1075;DHT22;526;51.392;12.448;2022-10-26T05:18:33;7.60;97.30
1075;DHT22;526;51.392;12.448;2022-10-26T05:20:58;7.70;97.30
1075;DHT22;526;51.392;12.448;2022-10-26T05:23:24;7.70;97.30
1075;DHT22;526;51.392;12.448;2022-10-26T05:25:50;7.70;97.30
1075;DHT22;526;51.392;12.448;2022-10-26T05:28:16;7.70;97.30
1075;DHT22;526;51.392;12.448;2022-10-26T05:30:44;7.70;97.30
1075;DHT22;526;51.392;12.448;2022-10-26T05:33:11;7.70;97.30
1075;DHT22;526;51.392;12.448;2022-10-26T05:35:37;7.70;97.30
1075;DHT22;526;51.392;12.448;2022-10-26T05:38:12;7.70;97.30
1075;DHT22;526;51.392;12.448;2022-10-26T05:40:38;7.70;97.30
1075;DHT22;526;51.392;12.448;2022-10-26T05:43:12;7.70;97.30
1075;DHT22;526;51.392;12.448;2022-10-26T05:45:38;7.70;97.30
1075;DHT22;526;51.392;12.448;2022-10-26T05:48:04;7.70;97.30
1075;DHT22;526;51.392;12.448;2022-10-26T05:50:30;7.70;97.30
1075;DHT22;526;51.392;12.448;2022-10-26T05:52:55;7.70;97.30
1075;DHT22;526;51.392;12.448;2022-10-26T05:55:21;7.70;97.30
1075;DHT22;526;51.392;12.448;2022-10-26T05:57:47;7.70;97.30
1075;DHT22;526;51.392;12.448;2022-10-26T06:00:21;7.70;97.30
1075;DHT22;526;51.392;12.448;2022-10-26T06:05:50;7.80;97.30
1075;DHT22;526;51.392;12.448;2022-10-26T06:08:17;7.80;97.30
1075;DHT22;526;51.392;12.448;2022-10-26T06:10:43;7.80;97.30
1075;DHT22;526;51.392;12.448;2022-10-26T06:13:08;7.90;97.30
1075;DHT22;526;51.392;12.448;2022-10-26T06:15:44;7.90;97.30
1075;DHT22;526;51.392;12.448;2022-10-26T06:18:24;8.00;97.30
1075;DHT22;526;51.392;12.448;2022-10-26T06:23:31;8.00;97.30
1075;DHT22;526;51.392;12.448;2022-10-26T06:26:08;8.10;97.30
1075;DHT22;526;51.392;12.448;2022-10-26T06:31:21;8.20;97.30
1075;DHT22;526;51.392;12.448;2022-10-26T06:33:46;8.30;97.30
1075;DHT22;526;51.392;12.448;2022-10-26T06:36:23;8.30;97.30
1075;DHT22;526;51.392;12.448;2022-10-26T06:38:54;8.40;97.30
1075;DHT22;526;51.392;12.448;2022-10-26T06:41:21;8.40;97.30
1075;DHT22;526;51.392;12.448;2022-10-26T06:43:47;8.50;97.30
1075;DHT22;526;51.392;12.448;2022-10-26T06:46:40;8.60;97.30
1075;DHT22;526;51.392;12.448;2022-10-26T06:52:11;8.80;97.30
1075;DHT22;526;51.392;12.448;2022-10-26T06:54:49;8.80;97.30
1075;DHT22;526;51.392;12.448;2022-10-26T06:57:20;8.90;97.30
1075;DHT22;526;51.392;12.448;2022-10-26T06:59:54;9.00;97.30
1075;DHT22;526;51.392;12.448;2022-10-26T07:02:21;9.10;97.30
1075;DHT22;526;51.392;12.448;2022-10-26T07:04:47;9.10;97.30
1075;DHT22;526;51.392;12.448;2022-10-26T07:07:21;9.10;97.30
1075;DHT22;526;51.392;12.448;2022-10-26T07:09:48;9.20;97.30
1075;DHT22;526;51.392;12.448;2022-10-26T07:12:14;9.20;97.30
1075;DHT22;526;51.392;12.448;2022-10-26T07:14:39;9.30;97.30
1075;DHT22;526;51.392;12.448;2022-10-26T07:17:05;9.40;97.30
1075;DHT22;526;51.392;12.448;2022-10-26T07:19:31;9.40;97.30
1075;DHT22;526;51.392;12.448;2022-10-26T07:21:57;9.50;97.30
1075;DHT22;526;51.392;12.448;2022-10-26T07:24:24;9.60;97.30
1075;DHT22;526;51.392;12.448;2022-10-26T07:26:53;9.70;97.30
1075;DHT22;526;51.392;12.448;2022-10-26T07:29:18;9.80;97.30
1075;DHT22;526;51.392;12.448;2022-10-26T07:31:44;9.90;97.30
1075;DHT22;526;51.392;12.448;2022-10-26T07:34:09;9.90;97.30
1075;DHT22;526;51.392;12.448;2022-10-26T07:36:35;10.00;97.30
1075;DHT22;526;51.392;12.448;2022-10-26T07:39:02;10.10;97.30
1075;DHT22;526;51.392;12.448;2022-10-26T07:41:27;10.10;97.30
1075;DHT22;526;51.392;12.448;2022-10-26T07:43:53;10.30;97.30
1075;DHT22;526;51.392;12.448;2022-10-26T07:46:18;10.30;97.30
1075;DHT22;526;51.392;12.448;2022-10-26T07:48:44;10.50;97.30
1075;DHT22;526;51.392;12.448;2022-10-26T07:51:09;10.70;97.30
1075;DHT22;526;51.392;12.448;2022-10-26T07:53:35;10.90;97.30
1075;DHT22;526;51.392;12.448;2022-10-26T07:56:00;11.00;97.30
1075;DHT22;526;51.392;12.448;2022-10-26T07:58:26;11.20;97.30
1075;DHT22;526;51.392;12.448;2022-10-26T08:00:53;11.30;97.30
1075;DHT22;526;51.392;12.448;2022-10-26T08:03:19;11.50;97.30
1075;DHT22;526;51.392;12.448;2022-10-26T08:05:46;11.60;97.30
1075;DHT22;526;51.392;12.448;2022-10-26T08:08:12;11.60;97.30
1075;DHT22;526;51.392;12.448;2022-10-26T08:10:42;11.70;97.30
1075;DHT22;526;51.392;12.448;2022-10-26T08:13:08;11.80;97.30
1075;DHT22;526;51.392;12.448;2022-10-26T08:15:34;11.90;97.30
1075;DHT22;526;51.392;12.448;2022-10-26T08:17:59;12.00;97.30
1075;DHT22;526;51.392;12.448;2022-10-26T08:20:25;12.10;97.30
1075;DHT22;526;51.392;12.448;2022-10-26T08:22:51;12.20;97.30
1075;DHT22;526;51.392;12.448;2022-10-26T08:25:17;12.30;97.30
1075;DHT22;526;51.392;12.448;2022-10-26T08:27:43;12.40;97.30
1075;DHT22;526;51.392;12.448;2022-10-26T08:30:09;12.50;97.30
1075;DHT22;526;51.392;12.448;2022-10-26T08:32:34;12.70;97.30
1075;DHT22;526;51.392;12.448;2022-10-26T08:35:00;12.90;97.30
1075;DHT22;526;51.392;12.448;2022-10-26T08:37:26;13.10;97.30
1075;DHT22;526;51.392;12.448;2022-10-26T08:39:52;13.20;97.30
1075;DHT22;526;51.392;12.448;2022-10-26T08:42:39;13.40;97.30
1075;DHT22;526;51.392;12.448;2022-10-26T08:45:28;13.60;97.30
1075;DHT22;526;51.392;12.448;2022-10-26T08:48:00;13.80;97.30
1075;DHT22;526;51.392;12.448;2022-10-26T08:52:57;14.10;97.30
1075;DHT22;526;51.392;12.448;2022-10-26T08:55:46;14.10;97.30
1075;DHT22;526;51.392;12.448;2022-10-26T08:58:22;14.20;97.30
1075;DHT22;526;51.392;12.448;2022-10-26T09:01:01;14.20;97.30
1075;DHT22;526;51.392;12.448;2022-10-26T09:03:30;14.20;97.30
1075;DHT22;526;51.392;12.448;2022-10-26T09:09:22;14.30;97.30
1075;DHT22;526;51.392;12.448;2022-10-26T09:26:02;14.70;97.30
1075;DHT22;526;51.392;12.448;2022-10-26T09:28:40;14.90;97.30
1075;DHT22;526;51.392;12.448;2022-10-26T09:31:19;15.00;97.30
1075;DHT22;526;51.392;12.448;2022-10-26T09:34:09;15.00;97.30
1075;DHT22;526;51.392;12.448;2022-10-26T09:36:53;15.20;97.30
1075;DHT22;526;51.392;12.448;2022-10-26T09:48:37;15.80;97.30
1075;DHT22;526;51.392;12.448;2022-10-26T09:51:03;15.90;97.30
1075;DHT22;526;51.392;12.448;2022-10-26T09:53:30;15.70;97.30
1075;DHT22;526;51.392;12.448;2022-10-26T09:56:02;15.70;97.30
1075;DHT22;526;51.392;12.448;2022-10-26T09:58:31;15.60;97.30
1075;DHT22;526;51.392;12.448;2022-10-26T10:00:58;15.60;97.30
1075;DHT22;526;51.392;12.448;2022-10-26T10:03:27;15.70;97.30
1075;DHT22;526;51.392;12.448;2022-10-26T10:06:09;15.90;97.30
1075;DHT22;526;51.392;12.448;2022-10-26T10:08:40;16.00;97.30
1075;DHT22;526;51.392;12.448;2022-10-26T10:11:16;16.30;97.30
1075;DHT22;526;51.392;12.448;2022-10-26T10:13:51;16.50;97.30
1075;DHT22;526;51.392;12.448;2022-10-26T10:16:24;16.60;97.30
1075;DHT22;526;51.392;12.448;2022-10-26T10:19:04;16.70;97.30
1075;DHT22;526;51.392;12.448;2022-10-26T10:25:20;16.70;97.30
1075;DHT22;526;51.392;12.448;2022-10-26T10:27:53;16.70;97.30
1075;DHT22;526;51.392;12.448;2022-10-26T10:30:35;16.70;97.30
1075;DHT22;526;51.392;12.448;2022-10-26T10:33:12;16.80;97.30
1075;DHT22;526;51.392;12.448;2022-10-26T10:35:52;16.90;97.30
1075;DHT22;526;51.392;12.448;2022-10-26T10:38:23;17.00;97.30
1075;DHT22;526;51.392;12.448;2022-10-26T10:40:55;17.10;97.30
1075;DHT22;526;51.392;12.448;2022-10-26T10:43:32;17.30;97.30
1075;DHT22;526;51.392;12.448;2022-10-26T10:45:58;17.40;97.30
1075;DHT22;526;51.392;12.448;2022-10-26T10:48:27;17.50;97.30
1075;DHT22;526;51.392;12.448;2022-10-26T10:50:55;17.50;97.30
1075;DHT22;526;51.392;12.448;2022-10-26T10:56:12;17.50;97.30
1075;DHT22;526;51.392;12.448;2022-10-26T11:01:37;17.30;97.30
1075;DHT22;526;51.392;12.448;2022-10-26T11:04:16;17.30;97.30
1075;DHT22;526;51.392;12.448;2022-10-26T11:06:47;17.40;97.30
1075;DHT22;526;51.392;12.448;2022-10-26T11:09:17;17.40;97.30
1075;DHT22;526;51.392;12.448;2022-10-26T11:11:52;17.50;97.30
1075;DHT22;526;51.392;12.448;2022-10-26T11:14:29;17.50;97.30
1075;DHT22;526;51.392;12.448;2022-10-26T11:17:06;17.50;97.30
1075;DHT22;526;51.392;12.448;2022-10-26T11:19:45;17.60;97.30
1075;DHT22;526;51.392;12.448;2022-10-26T11:22:15;17.60;97.30
1075;DHT22;526;51.392;12.448;2022-10-26T11:27:19;17.70;97.30
1075;DHT22;526;51.392;12.448;2022-10-26T11:30:05;17.80;97.30
1075;DHT22;526;51.392;12.448;2022-10-26T11:32:51;17.80;97.30
1075;DHT22;526;51.392;12.448;2022-10-26T11:35:25;18.00;97.30
1075;DHT22;526;51.392;12.448;2022-10-26T11:37:54;18.20;97.30
1075;DHT22;526;51.392;12.448;2022-10-26T11:40:40;18.30;97.10
1075;DHT22;526;51.392;12.448;2022-10-26T11:46:29;18.30;97.30
1075;DHT22;526;51.392;12.448;2022-10-26T11:54:26;18.40;96.20
1075;DHT22;526;51.392;12.448;2022-10-26T11:56:57;18.30;96.10
1075;DHT22;526;51.392;12.448;2022-10-26T12:05:19;18.00;97.10
1075;DHT22;526;51.392;12.448;2022-10-26T12:08:10;17.90;97.00
1075;DHT22;526;51.392;12.448;2022-10-26T12:11:12;18.00;97.30
1075;DHT22;526;51.392;12.448;2022-10-26T12:20:20;18.10;97.00
1075;DHT22;526;51.392;12.448;2022-10-26T12:22:53;18.10;97.10
1075;DHT22;526;51.392;12.448;2022-10-26T12:25:20;18.00;97.00
1075;DHT22;526;51.392;12.448;2022-10-26T12:28:01;18.00;96.90
1075;DHT22;526;51.392;12.448;2022-10-26T12:30:33;17.90;97.30
1075;DHT22;526;51.392;12.448;2022-10-26T12:33:28;17.90;97.30
1075;DHT22;526;51.392;12.448;2022-10-26T12:35:56;17.90;97.30
1075;DHT22;526;51.392;12.448;2022-10-26T12:41:26;17.80;97.30
1075;DHT22;526;51.392;12.448;2022-10-26T12:43:57;17.70;97.30
1075;DHT22;526;51.392;12.448;2022-10-26T12:48:58;17.70;97.30
1075;DHT22;526;51.392;12.448;2022-10-26T12:56:55;17.80;97.30
1075;DHT22;526;51.392;12.448;2022-10-26T13:02:29;18.00;97.30
1075;DHT22;526;51.392;12.448;2022-10-26T13:07:48;18.70;97.30
1075;DHT22;526;51.392;12.448;2022-10-26T13:10:20;19.30;97.30
1075;DHT22;526;51.392;12.448;2022-10-26T13:13:00;19.80;95.20
1075;DHT22;526;51.392;12.448;2022-10-26T13:15:39;20.20;94.40
1075;DHT22;526;51.392;12.448;2022-10-26T13:18:08;20.20;93.80
1075;DHT22;526;51.392;12.448;2022-10-26T13:21:07;20.20;93.10
1075;DHT22;526;51.392;12.448;2022-10-26T13:23:38;20.20;92.60
1075;DHT22;526;51.392;12.448;2022-10-26T13:26:17;20.10;92.20
1075;DHT22;526;51.392;12.448;2022-10-26T13:29:07;19.80;92.70
1075;DHT22;526;51.392;12.448;2022-10-26T13:34:39;19.40;93.60
1075;DHT22;526;51.392;12.448;2022-10-26T13:37:22;19.40;93.70
1075;DHT22;526;51.392;12.448;2022-10-26T13:39:49;19.50;93.70
1075;DHT22;526;51.392;12.448;2022-10-26T13:42:24;19.50;94.00
1075;DHT22;526;51.392;12.448;2022-10-26T13:44:57;19.40;94.10
1075;DHT22;526;51.392;12.448;2022-10-26T13:47:31;19.30;94.30
1075;DHT22;526;51.392;12.448;2022-10-26T13:50:06;19.30;95.00
1075;DHT22;526;51.392;12.448;2022-10-26T13:52:35;19.20;95.50
1075;DHT22;526;51.392;12.448;2022-10-26T13:57:41;19.00;95.10
1075;DHT22;526;51.392;12.448;2022-10-26T14:00:15;18.80;95.50
1075;DHT22;526;51.392;12.448;2022-10-26T14:02:42;18.70;95.70
1075;DHT22;526;51.392;12.448;2022-10-26T14:05:09;18.50;96.30
1075;DHT22;526;51.392;12.448;2022-10-26T14:07:47;18.40;96.90
1075;DHT22;526;51.392;12.448;2022-10-26T14:10:26;18.30;97.30
1075;DHT22;526;51.392;12.448;2022-10-26T14:12:53;18.20;97.30
1075;DHT22;526;51.392;12.448;2022-10-26T14:15:24;18.10;97.30
1075;DHT22;526;51.392;12.448;2022-10-26T14:17:51;18.10;97.30
1075;DHT22;526;51.392;12.448;2022-10-26T14:20:19;18.00;97.30
1075;DHT22;526;51.392;12.448;2022-10-26T14:22:46;18.00;97.30
1075;DHT22;526;51.392;12.448;2022-10-26T14:25:23;17.90;97.30
1075;DHT22;526;51.392;12.448;2022-10-26T14:27:53;17.80;97.30
1075;DHT22;526;51.392;12.448;2022-10-26T14:30:30;17.80;97.30
1075;DHT22;526;51.392;12.448;2022-10-26T14:32:57;17.70;97.30
1075;DHT22;526;51.392;12.448;2022-10-26T14:35:26;17.70;97.30
1075;DHT22;526;51.392;12.448;2022-10-26T14:38:01;17.70;97.30
1075;DHT22;526;51.392;12.448;2022-10-26T14:40:30;17.70;97.30
1075;DHT22;526;51.392;12.448;2022-10-26T14:43:00;17.70;97.30
1075;DHT22;526;51.392;12.448;2022-10-26T14:47:53;17.60;97.30
1075;DHT22;526;51.392;12.448;2022-10-26T14:50:20;17.50;97.30
1075;DHT22;526;51.392;12.448;2022-10-26T14:52:53;17.50;97.30
1075;DHT22;526;51.392;12.448;2022-10-26T14:55:19;17.60;97.30
1075;DHT22;526;51.392;12.448;2022-10-26T14:57:47;17.60;97.30
1075;DHT22;526;51.392;12.448;2022-10-26T15:00:21;17.70;97.30
1075;DHT22;526;51.392;12.448;2022-10-26T15:02:56;17.70;97.30
1075;DHT22;526;51.392;12.448;2022-10-26T15:07:49;17.70;97.30
1075;DHT22;526;51.392;12.448;2022-10-26T15:10:44;17.70;97.30
1075;DHT22;526;51.392;12.448;2022-10-26T15:13:29;17.60;97.30
1075;DHT22;526;51.392;12.448;2022-10-26T15:16:23;17.50;97.30
1075;DHT22;526;51.392;12.448;2022-10-26T15:18:51;17.50;97.30
1075;DHT22;526;51.392;12.448;2022-10-26T15:21:33;17.40;97.30
1075;DHT22;526;51.392;12.448;2022-10-26T15:24:00;17.40;97.30
1075;DHT22;526;51.392;12.448;2022-10-26T15:26:27;17.30;97.30
1075;DHT22;526;51.392;12.448;2022-10-26T15:28:53;17.20;97.30
1075;DHT22;526;51.392;12.448;2022-10-26T15:36:21;17.00;97.30
1075;DHT22;526;51.392;12.448;2022-10-26T15:38:47;17.00;97.30
1075;DHT22;526;51.392;12.448;2022-10-26T15:41:22;16.90;97.30
1075;DHT22;526;51.392;12.448;2022-10-26T15:43:49;16.80;97.30
1075;DHT22;526;51.392;12.448;2022-10-26T15:46:15;16.80;97.30
1075;DHT22;526;51.392;12.448;2022-10-26T15:48:41;16.70;97.30
1075;DHT22;526;51.392;12.448;2022-10-26T15:51:12;16.60;97.30
1075;DHT22;526;51.392;12.448;2022-10-26T15:53:41;16.60;97.30
1075;DHT22;526;51.392;12.448;2022-10-26T15:56:14;16.50;97.30
1075;DHT22;526;51.392;12.448;2022-10-26T15:58:40;16.50;97.30
1075;DHT22;526;51.392;12.448;2022-10-26T16:01:05;16.40;97.30
1075;DHT22;526;51.392;12.448;2022-10-26T16:03:31;16.40;97.30
1075;DHT22;526;51.392;12.448;2022-10-26T16:06:01;16.30;97.30
1075;DHT22;526;51.392;12.448;2022-10-26T16:08:29;16.30;97.30
1075;DHT22;526;51.392;12.448;2022-10-26T16:10:55;16.20;97.30
1075;DHT22;526;51.392;12.448;2022-10-26T16:13:20;16.20;97.30
1075;DHT22;526;51.392;12.448;2022-10-26T16:15:46;16.20;97.30
1075;DHT22;526;51.392;12.448;2022-10-26T16:18:12;16.20;97.30
1075;DHT22;526;51.392;12.448;2022-10-26T16:20:38;16.20;97.30
1075;DHT22;526;51.392;12.448;2022-10-26T16:23:04;16.20;97.30
1075;DHT22;526;51.392;12.448;2022-10-26T16:25:39;16.20;97.30
1075;DHT22;526;51.392;12.448;2022-10-26T16:28:05;16.20;97.30
1075;DHT22;526;51.392;12.448;2022-10-26T16:30:31;16.20;97.30
1075;DHT22;526;51.392;12.448;2022-10-26T16:32:57;16.20;97.30
1075;DHT22;526;51.392;12.448;2022-10-26T16:35:23;16.10;97.30
1075;DHT22;526;51.392;12.448;2022-10-26T16:37:48;16.10;97.30
1075;DHT22;526;51.392;12.448;2022-10-26T16:40:14;16.00;97.30
1075;DHT22;526;51.392;12.448;2022-10-26T16:42:40;16.00;97.30
1075;DHT22;526;51.392;12.448;2022-10-26T16:45:13;15.90;97.30
1075;DHT22;526;51.392;12.448;2022-10-26T16:47:39;15.90;97.30
1075;DHT22;526;51.392;12.448;2022-10-26T16:50:09;15.80;97.30
1075;DHT22;526;51.392;12.448;2022-10-26T16:52:37;15.80;97.30
1075;DHT22;526;51.392;12.448;2022-10-26T16:55:04;15.70;97.30
1075;DHT22;526;51.392;12.448;2022-10-26T16:57:30;15.70;97.30
1075;DHT22;526;51.392;12.448;2022-10-26T16:59:56;15.70;97.30
1075;DHT22;526;51.392;12.448;2022-10-26T17:02:22;15.60;97.30
1075;DHT22;526;51.392;12.448;2022-10-26T17:04:48;15.50;97.30
1075;DHT22;526;51.392;12.448;2022-10-26T17:07:13;15.40;97.30
1075;DHT22;526;51.392;12.448;2022-10-26T17:09:39;15.40;97.30
1075;DHT22;526;51.392;12.448;2022-10-26T17:12:05;15.30;97.30
1075;DHT22;526;51.392;12.448;2022-10-26T17:14:30;15.30;97.30
1075;DHT22;526;51.392;12.448;2022-10-26T17:16:57;15.20;97.30
1075;DHT22;526;51.392;12.448;2022-10-26T17:19:22;15.10;97.30
1075;DHT22;526;51.392;12.448;2022-10-26T17:21:48;15.00;97.30
1075;DHT22;526;51.392;12.448;2022-10-26T17:24:13;15.00;97.30
1075;DHT22;526;51.392;12.448;2022-10-26T17:26:39;14.90;97.30
1075;DHT22;526;51.392;12.448;2022-10-26T17:29:05;14.80;97.30
1075;DHT22;526;51.392;12.448;2022-10-26T17:31:32;14.80;97.30
1075;DHT22;526;51.392;12.448;2022-10-26T17:33:58;14.70;97.30
1075;DHT22;526;51.392;12.448;2022-10-26T17:36:24;14.70;97.30
1075;DHT22;526;51.392;12.448;2022-10-26T17:38:52;14.60;97.30
1075;DHT22;526;51.392;12.448;2022-10-26T17:41:19;14.60;97.30
1075;DHT22;526;51.392;12.448;2022-10-26T17:43:46;14.50;97.30
1075;DHT22;526;51.392;12.448;2022-10-26T17:46:19;14.50;97.30
1075;DHT22;526;51.392;12.448;2022-10-26T17:48:47;14.40;97.30
1075;DHT22;526;51.392;12.448;2022-10-26T17:51:15;14.40;97.30
1075;DHT22;526;51.392;12.448;2022-10-26T17:53:42;14.30;97.30
1075;DHT22;526;51.392;12.448;2022-10-26T17:56:13;14.30;97.30
1075;DHT22;526;51.392;12.448;2022-10-26T17:58:39;14.20;97.30
1075;DHT22;526;51.392;12.448;2022-10-26T18:01:10;14.20;97.30
1075;DHT22;526;51.392;12.448;2022-10-26T18:03:37;14.10;97.30
1075;DHT22;526;51.392;12.448;2022-10-26T18:06:03;14.10;97.30
1075;DHT22;526;51.392;12.448;2022-10-26T18:08:32;14.00;97.30
1075;DHT22;526;51.392;12.448;2022-10-26T18:10:58;14.00;97.30
1075;DHT22;526;51.392;12.448;2022-10-26T18:13:25;14.00;97.30
1075;DHT22;526;51.392;12.448;2022-10-26T18:15:51;13.90;97.30
1075;DHT22;526;51.392;12.448;2022-10-26T18:18:16;13.80;97.30
1075;DHT22;526;51.392;12.448;2022-10-26T18:20:42;13.80;97.30
1075;DHT22;526;51.392;12.448;2022-10-26T18:23:08;13.70;97.30
1075;DHT22;526;51.392;12.448;2022-10-26T18:25:33;13.70;97.30
1075;DHT22;526;51.392;12.448;2022-10-26T18:28:00;13.60;97.30
1075;DHT22;526;51.392;12.448;2022-10-26T18:30:26;13.60;97.30
1075;DHT22;526;51.392;12.448;2022-10-26T18:32:51;13.50;97.30
1075;DHT22;526;51.392;12.448;2022-10-26T18:35:18;13.50;97.30
1075;DHT22;526;51.392;12.448;2022-10-26T18:37:44;13.50;97.30